Time;durP1;ratioP1;P1;durP2;ratioP2;P2;SDS_P1;SDS_P2;PMS_P1;PMS_P2;Temp;Humidity;BMP_temperature;BMP_pressure;BME280_temperature;BME280_humidity;BME280_pressure;Samples;Min_cycle;Max_cycle;Signal;HPM_P1;HPM_P2
2022/11/22 00:00:19;;;;;;;83.78;14.32;;;;;;;6.56;64.68;97762.50;4485483;32;20096;-85
2022/11/22 00:02:45;;;;;;;32.72;11.70;;;;;;;6.89;63.62;97760.66;4486785;32;20100;-85
2022/11/22 00:05:11;;;;;;;109.12;16.52;;;;;;;7.07;63.09;97747.44;4488303;32;20097;-86
2022/11/22 00:07:37;;;;;;;201.23;21.92;;;;;;;6.78;63.46;97749.06;4487963;32;20069;-86
2022/11/22 00:10:04;;;;;;;154.07;19.37;;;;;;;6.66;63.97;97751.47;4488046;32;20096;-86
2022/11/22 00:12:29;;;;;;;89.65;17.98;;;;;;;6.88;63.61;97751.09;4488041;32;20118;-86
2022/11/22 00:14:55;;;;;;;70.60;15.52;;;;;;;6.94;63.59;97751.69;4488035;32;20088;-86
2022/11/22 00:17:20;;;;;;;87.55;15.57;;;;;;;7.03;63.47;97743.28;4487859;32;20412;-86
2022/11/22 00:19:45;;;;;;;35.10;12.40;;;;;;;6.97;63.58;97757.56;4473390;32;20100;-85
2022/11/22 00:22:11;;;;;;;22.02;11.18;;;;;;;6.79;64.20;97758.63;4487736;32;20115;-86
2022/11/22 00:24:36;;;;;;;24.92;10.77;;;;;;;6.89;64.09;97759.78;4487794;32;20095;-86
2022/11/22 00:27:02;;;;;;;28.80;10.65;;;;;;;7.00;64.05;97761.81;4487460;32;20131;-89
2022/11/22 00:29:27;;;;;;;65.00;12.75;;;;;;;7.09;63.95;97754.28;4487667;32;20411;-89
2022/11/22 00:31:52;;;;;;;63.95;13.40;;;;;;;6.91;63.96;97757.94;4487388;32;20080;-88
2022/11/22 00:34:18;;;;;;;25.48;10.90;;;;;;;6.82;64.34;97763.72;4487709;32;20219;-88
2022/11/22 00:36:43;;;;;;;125.47;16.10;;;;;;;6.86;64.42;97760.81;4487757;32;20085;-89
2022/11/22 00:39:08;;;;;;;28.08;10.95;;;;;;;5.93;66.54;97769.31;4487661;32;20097;-88
2022/11/22 00:41:34;;;;;;;29.77;11.65;;;;;;;6.58;65.45;97758.03;4473374;32;20452;-85
2022/11/22 00:44:00;;;;;;;25.00;10.50;;;;;;;6.82;64.77;97753.22;4487622;32;20095;-85
2022/11/22 00:46:25;;;;;;;23.77;10.85;;;;;;;6.86;64.56;97755.59;4473224;32;20108;-85
2022/11/22 00:48:50;;;;;;;29.10;11.25;;;;;;;6.97;64.51;97748.88;4487612;32;20444;-85
2022/11/22 00:51:16;;;;;;;33.80;10.70;;;;;;;6.99;64.55;97745.28;4473299;32;20088;-85
2022/11/22 00:53:41;;;;;;;26.05;11.25;;;;;;;7.09;64.13;97740.34;4487525;32;20160;-85
2022/11/22 00:56:07;;;;;;;31.33;13.07;;;;;;;7.17;63.84;97735.50;4473319;32;20119;-85
2022/11/22 00:58:32;;;;;;;23.92;11.75;;;;;;;7.18;63.96;97742.41;4487234;32;20118;-85
2022/11/22 01:00:57;;;;;;;33.67;11.80;;;;;;;7.19;64.00;97743.28;4487496;32;20179;-84
2022/11/22 01:03:23;;;;;;;31.60;13.20;;;;;;;7.28;63.82;97740.97;4487413;32;20083;-85
2022/11/22 01:05:49;;;;;;;23.23;10.90;;;;;;;7.41;63.51;97745.50;4487497;32;20115;-85
2022/11/22 01:08:14;;;;;;;28.92;11.40;;;;;;;7.37;63.70;97738.75;4487434;32;20088;-84
2022/11/22 01:10:40;;;;;;;25.08;10.70;;;;;;;7.42;63.67;97744.56;4487414;32;20148;-85
2022/11/22 01:13:05;;;;;;;27.20;12.15;;;;;;;7.47;63.67;97742.50;4487116;32;20114;-85
2022/11/22 01:15:31;;;;;;;30.60;11.63;;;;;;;7.54;63.52;97740.38;4486741;32;20084;-85
2022/11/22 01:17:57;;;;;;;40.47;12.30;;;;;;;7.55;63.46;97748.16;4487316;32;20118;-85
2022/11/22 01:20:22;;;;;;;27.75;11.25;;;;;;;7.59;63.48;97743.56;4487388;32;20088;-85
2022/11/22 01:22:47;;;;;;;30.02;10.90;;;;;;;7.60;63.42;97746.09;4472955;32;20132;-85
2022/11/22 01:25:13;;;;;;;31.60;11.75;;;;;;;7.64;63.28;97744.13;4487401;32;20326;-85
2022/11/22 01:27:38;;;;;;;25.75;10.18;;;;;;;7.59;63.42;97736.56;4487237;32;20097;-85
2022/11/22 01:30:04;;;;;;;24.10;10.00;;;;;;;7.61;63.46;97728.59;4487162;32;20087;-85
2022/11/22 01:32:30;;;;;;;26.95;11.30;;;;;;;7.62;63.39;97727.66;4487132;32;20112;-85
2022/11/22 01:34:55;;;;;;;37.53;10.98;;;;;;;7.65;63.34;97728.31;4487282;32;20364;-85
2022/11/22 01:37:21;;;;;;;34.35;10.35;;;;;;;7.62;63.41;97727.66;4472901;32;20104;-85
2022/11/22 01:39:46;;;;;;;27.73;10.93;;;;;;;7.64;63.40;97720.53;4487208;32;20107;-85
2022/11/22 01:42:11;;;;;;;39.50;11.07;;;;;;;7.65;63.34;97722.25;4487167;32;20088;-85
2022/11/22 01:44:41;;;;;;;30.20;9.70;;;;;;;7.62;63.23;97719.78;4487176;32;20081;-84
2022/11/22 01:47:11;;;;;;;29.20;10.95;;;;;;;7.66;63.22;97726.53;4487162;32;20165;-85
2022/11/22 01:49:47;;;;;;;95.45;14.35;;;;;;;7.57;63.34;97721.84;4472984;32;20104;-85
2022/11/22 01:52:16;;;;;;;62.58;12.80;;;;;;;7.13;64.54;97734.00;4473035;32;20100;-85
2022/11/22 01:54:44;;;;;;;34.53;11.00;;;;;;;7.35;63.97;97732.75;4472890;32;20567;-84
2022/11/22 01:57:14;;;;;;;39.92;12.00;;;;;;;7.50;63.68;97729.22;4473018;32;20152;-85
2022/11/22 01:59:45;;;;;;;53.60;13.02;;;;;;;7.58;63.52;97728.78;4472846;32;20131;-86
2022/11/22 02:02:11;;;;;;;47.65;12.05;;;;;;;7.62;63.43;97728.50;4472898;32;20092;-85
2022/11/22 02:04:37;;;;;;;30.52;11.07;;;;;;;7.66;63.38;97723.91;4486963;32;20392;-84
2022/11/22 02:07:11;;;;;;;36.45;11.10;;;;;;;7.60;63.56;97719.03;4487046;32;20478;-85
2022/11/22 02:09:37;;;;;;;37.70;12.18;;;;;;;7.63;63.58;97719.72;4472991;32;20115;-86
2022/11/22 02:12:04;;;;;;;32.00;12.18;;;;;;;7.62;63.65;97723.25;4472800;32;20092;-86
2022/11/22 02:14:30;;;;;;;53.58;12.50;;;;;;;7.65;63.74;97723.09;4472783;32;20341;-85
2022/11/22 02:16:55;;;;;;;31.92;11.10;;;;;;;7.65;63.70;97719.63;4486973;32;20262;-84
2022/11/22 02:19:30;;;;;;;141.45;19.35;;;;;;;7.68;63.65;97716.81;4486986;32;20136;-84
2022/11/22 02:22:00;;;;;;;39.85;13.55;;;;;;;7.29;64.77;97726.09;4472756;32;20118;-84
2022/11/22 02:24:30;;;;;;;26.60;11.27;;;;;;;7.48;64.14;97713.59;4486910;32;20092;-85
2022/11/22 02:26:56;;;;;;;41.55;12.55;;;;;;;7.57;64.03;97719.22;4472469;32;20093;-85
2022/11/22 02:29:21;;;;;;;38.40;13.13;;;;;;;7.62;63.96;97710.16;4472490;32;20148;-85
2022/11/22 02:31:47;;;;;;;38.20;12.95;;;;;;;7.60;64.02;97701.53;4472486;32;20118;-85
2022/11/22 02:34:13;;;;;;;32.78;11.85;;;;;;;7.64;63.98;97702.19;4472533;32;20366;-86
2022/11/22 02:36:50;;;;;;;43.22;12.73;;;;;;;7.65;63.99;97693.41;4486829;32;20561;-86
2022/11/22 02:39:19;;;;;;;38.55;12.50;;;;;;;7.67;63.89;97694.16;4472628;32;20171;-86
2022/11/22 02:41:45;;;;;;;37.00;12.55;;;;;;;7.65;63.93;97702.13;4486845;32;20080;-86
2022/11/22 02:44:11;;;;;;;34.72;12.43;;;;;;;7.66;63.89;97690.69;4486784;32;20141;-85
2022/11/22 02:46:48;;;;;;;40.53;12.65;;;;;;;7.68;63.81;97696.66;4472293;32;20127;-86
2022/11/22 02:49:16;;;;;;;36.38;12.20;;;;;;;7.68;63.88;97690.59;4486752;32;20100;-86
2022/11/22 02:51:41;;;;;;;37.78;13.20;;;;;;;7.73;63.73;97695.56;4486552;32;20148;-86
2022/11/22 02:54:07;;;;;;;34.78;12.15;;;;;;;7.70;63.73;97698.38;4486607;32;20128;-86
2022/11/22 02:56:32;;;;;;;44.15;12.50;;;;;;;7.70;63.78;97695.75;4486517;32;20124;-86
2022/11/22 02:58:57;;;;;;;35.13;11.18;;;;;;;7.73;63.79;97698.19;4486387;32;20120;-86
2022/11/22 03:01:23;;;;;;;31.35;11.15;;;;;;;7.76;63.68;97698.81;4472131;32;20077;-85
2022/11/22 03:03:48;;;;;;;32.05;11.35;;;;;;;7.75;63.76;97699.78;4486152;32;20088;-85
2022/11/22 03:06:13;;;;;;;29.20;11.10;;;;;;;7.75;63.81;97698.94;4471944;32;20104;-86
2022/11/22 03:08:39;;;;;;;34.30;11.75;;;;;;;7.76;63.79;97700.63;4486388;32;20108;-86
2022/11/22 03:11:04;;;;;;;29.98;11.90;;;;;;;7.71;63.83;97700.91;4472044;32;20436;-85
2022/11/22 03:13:30;;;;;;;29.95;11.73;;;;;;;7.75;63.82;97691.06;4486379;32;20148;-86
2022/11/22 03:15:55;;;;;;;29.98;11.50;;;;;;;7.79;63.82;97689.94;4486158;32;20497;-86
2022/11/22 03:18:21;;;;;;;36.28;12.85;;;;;;;7.77;63.79;97695.28;4485998;32;20084;-86
2022/11/22 03:20:46;;;;;;;65.87;13.40;;;;;;;7.76;63.86;97690.13;4472224;32;20107;-86
2022/11/22 03:23:11;;;;;;;32.67;11.90;;;;;;;7.77;63.77;97684.78;4486342;32;20428;-86
2022/11/22 03:25:37;;;;;;;38.67;12.68;;;;;;;7.78;63.80;97688.25;4486465;32;20092;-86
2022/11/22 03:28:03;;;;;;;32.63;13.40;;;;;;;7.80;63.92;97686.38;4486393;32;20092;-86
2022/11/22 03:30:28;;;;;;;50.45;13.75;;;;;;;7.83;63.71;97689.66;4486296;32;20335;-86
2022/11/22 03:32:54;;;;;;;37.33;11.82;;;;;;;7.77;63.68;97689.22;4471844;32;20144;-86
2022/11/22 03:35:20;;;;;;;33.53;12.85;;;;;;;7.79;63.65;97682.91;4486225;32;20108;-84
2022/11/22 03:37:45;;;;;;;36.95;12.77;;;;;;;7.79;63.71;97676.84;4487431;32;20120;-84
2022/11/22 03:40:11;;;;;;;34.30;12.52;;;;;;;7.80;63.70;97681.12;4488337;32;20080;-84
2022/11/22 03:42:36;;;;;;;32.13;13.25;;;;;;;7.79;63.68;97680.31;4473631;32;20083;-84
2022/11/22 03:45:02;;;;;;;32.45;12.07;;;;;;;7.80;63.66;97681.12;4487833;32;20100;-84
2022/11/22 03:47:27;;;;;;;32.10;12.43;;;;;;;7.82;63.61;97680.12;4487859;32;20380;-83
2022/11/22 03:49:52;;;;;;;34.80;12.32;;;;;;;7.61;64.05;97676.16;4488091;32;20417;-84
2022/11/22 03:52:18;;;;;;;35.40;14.77;;;;;;;7.78;63.75;97668.13;4487974;32;20119;-85
2022/11/22 03:54:43;;;;;;;31.30;11.63;;;;;;;7.63;63.91;97667.28;4487783;32;20096;-85
2022/11/22 03:57:09;;;;;;;31.15;11.88;;;;;;;7.74;63.58;97673.66;4487981;32;20093;-85
2022/11/22 03:59:34;;;;;;;33.67;13.02;;;;;;;7.60;63.46;97659.59;4487988;32;20115;-84
2022/11/22 04:01:59;;;;;;;34.10;12.98;;;;;;;7.66;63.53;97666.25;4473497;32;20089;-83
2022/11/22 04:04:25;;;;;;;28.42;11.65;;;;;;;7.68;63.51;97665.22;4487908;32;20447;-84
2022/11/22 04:06:50;;;;;;;31.80;13.62;;;;;;;7.70;63.66;97669.53;4487738;32;20156;-84
2022/11/22 04:09:15;;;;;;;33.22;13.32;;;;;;;7.67;63.84;97668.78;4487979;32;20384;-83
2022/11/22 04:11:41;;;;;;;34.65;13.45;;;;;;;7.77;63.67;97669.06;4487860;32;20084;-83
2022/11/22 04:16:54;;;;;;;30.55;12.73;;;;;;;7.79;63.68;97667.19;4488026;32;20118;-83
2022/11/22 04:19:19;;;;;;;29.15;12.20;;;;;;;7.80;63.50;97673.28;4473614;32;20132;-86
2022/11/22 04:21:45;;;;;;;30.08;12.55;;;;;;;7.82;63.24;97666.16;4487795;32;20517;-85
2022/11/22 04:26:56;;;;;;;31.52;13.82;;;;;;;7.79;63.33;97677.69;4487857;32;20157;-83
2022/11/22 04:29:21;;;;;;;30.75;13.40;;;;;;;7.75;63.17;97673.56;4487682;32;20122;-85
2022/11/22 04:34:32;;;;;;;30.85;14.20;;;;;;;7.77;63.03;97670.84;4487783;32;20161;-85
2022/11/22 04:36:58;;;;;;;33.72;14.15;;;;;;;7.78;62.94;97657.62;4487708;32;20097;-85
2022/11/22 04:39:23;;;;;;;50.95;14.63;;;;;;;7.76;62.53;97667.38;4487563;32;20114;-85
2022/11/22 04:44:39;;;;;;;30.15;13.77;;;;;;;7.44;62.70;97667.56;4487705;32;20717;-85
2022/11/22 04:47:06;;;;;;;35.75;12.95;;;;;;;7.48;62.13;97670.84;4473790;32;20115;-84
2022/11/22 04:49:32;;;;;;;26.60;11.98;;;;;;;7.16;62.69;97660.47;4486589;32;20092;-84
2022/11/22 04:54:41;;;;;;;23.30;10.93;;;;;;;7.41;61.95;97665.09;4487533;32;20421;-84
2022/11/22 04:57:06;;;;;;;24.30;10.88;;;;;;;7.35;61.85;97662.03;4473104;32;20097;-86
2022/11/22 04:59:32;;;;;;;26.05;11.40;;;;;;;7.36;61.79;97664.56;4487222;32;20092;-86
2022/11/22 05:01:57;;;;;;;22.27;11.10;;;;;;;7.36;61.80;97675.03;4487334;32;20076;-85
2022/11/22 05:04:22;;;;;;;21.83;10.13;;;;;;;7.39;61.77;97679.25;4487400;32;20111;-85
2022/11/22 05:06:48;;;;;;;23.30;10.30;;;;;;;7.40;61.50;97681.78;4472938;32;20200;-86
2022/11/22 05:09:14;;;;;;;23.65;10.32;;;;;;;7.29;61.62;97681.56;4487428;32;20139;-86
2022/11/22 05:11:39;;;;;;;22.85;10.63;;;;;;;7.35;61.30;97689.06;4473178;32;20359;-86
2022/11/22 05:14:04;;;;;;;21.17;10.10;;;;;;;7.37;61.20;97679.31;4487251;32;20088;-86
2022/11/22 05:16:30;;;;;;;23.55;10.40;;;;;;;7.40;61.11;97679.16;4487427;32;20114;-86
2022/11/22 05:18:58;;;;;;;20.65;10.02;;;;;;;7.39;61.04;97689.72;4487440;32;20098;-86
2022/11/22 05:21:25;;;;;;;24.35;10.52;;;;;;;7.38;60.82;97694.13;4487295;32;20076;-86
2022/11/22 05:23:53;;;;;;;22.60;11.10;;;;;;;7.38;60.98;97690.63;4487322;32;20127;-86
2022/11/22 05:26:29;;;;;;;21.85;11.45;;;;;;;7.40;60.76;97683.56;4487233;32;20152;-86
2022/11/22 05:28:58;;;;;;;21.90;10.65;;;;;;;7.29;60.30;97685.00;4487410;32;20100;-86
2022/11/22 05:31:26;;;;;;;23.45;10.63;;;;;;;7.34;60.30;97684.75;4487155;32;20080;-85
2022/11/22 05:33:52;;;;;;;23.08;11.35;;;;;;;7.32;60.33;97693.63;4487315;32;20121;-85
2022/11/22 05:36:19;;;;;;;23.40;10.90;;;;;;;7.26;60.09;97700.94;4487374;32;20553;-86
2022/11/22 05:38:44;;;;;;;23.80;11.00;;;;;;;7.21;59.95;97708.19;4487276;32;20092;-85
2022/11/22 05:41:11;;;;;;;26.10;11.35;;;;;;;7.22;60.16;97709.91;4487238;32;20084;-85
2022/11/22 05:43:37;;;;;;;23.80;11.43;;;;;;;7.23;60.26;97685.38;4472996;32;20100;-86
2022/11/22 05:46:11;;;;;;;23.83;11.75;;;;;;;7.12;60.14;97694.81;4487294;32;20100;-86
2022/11/22 05:48:39;;;;;;;26.50;11.30;;;;;;;7.08;59.97;97691.50;4472875;32;20455;-87
2022/11/22 05:51:06;;;;;;;25.08;11.40;;;;;;;7.06;60.12;97680.28;4487140;32;20083;-84
2022/11/22 05:53:32;;;;;;;22.87;10.68;;;;;;;7.02;60.11;97682.22;4487165;32;20451;-86
2022/11/22 05:55:57;;;;;;;22.95;9.95;;;;;;;7.01;59.99;97701.50;4487182;32;20122;-86
2022/11/22 05:58:22;;;;;;;24.75;10.90;;;;;;;7.04;60.13;97701.31;4487109;32;20459;-86
2022/11/22 06:00:48;;;;;;;21.55;10.95;;;;;;;6.98;60.20;97706.06;4472385;32;20258;-85
2022/11/22 06:03:13;;;;;;;20.08;10.13;;;;;;;6.95;59.97;97703.62;4487060;32;20221;-86
2022/11/22 06:05:39;;;;;;;22.17;10.50;;;;;;;7.00;60.25;97712.91;4487098;32;20143;-85
2022/11/22 06:08:04;;;;;;;25.75;11.12;;;;;;;6.99;60.43;97716.47;4486813;32;20103;-86
2022/11/22 06:10:29;;;;;;;21.00;10.43;;;;;;;7.05;60.36;97725.72;4487008;32;20080;-87
2022/11/22 06:12:55;;;;;;;23.05;10.02;;;;;;;7.07;60.29;97727.34;4486994;32;20110;-86
2022/11/22 06:15:21;;;;;;;22.77;11.25;;;;;;;7.09;60.15;97724.63;4472647;32;20096;-86
2022/11/22 06:17:46;;;;;;;21.52;9.75;;;;;;;7.15;60.08;97726.06;4487048;32;20088;-87
2022/11/22 06:20:12;;;;;;;24.83;10.88;;;;;;;7.15;59.97;97726.06;4472730;32;20084;-86
2022/11/22 06:22:37;;;;;;;23.50;10.15;;;;;;;7.20;59.85;97724.00;4486814;32;20118;-86
2022/11/22 06:25:03;;;;;;;21.85;9.60;;;;;;;7.25;59.66;97720.19;4486849;32;20141;-86
2022/11/22 06:27:28;;;;;;;22.05;10.15;;;;;;;7.25;59.55;97728.03;4486739;32;20117;-87
2022/11/22 06:29:54;;;;;;;22.35;9.93;;;;;;;7.21;59.33;97726.53;4486816;32;20107;-87
2022/11/22 06:32:19;;;;;;;22.42;11.73;;;;;;;7.24;59.49;97731.63;4486578;32;20119;-85
2022/11/22 06:34:45;;;;;;;23.48;10.50;;;;;;;7.10;59.76;97739.41;4486817;32;20092;-84
2022/11/22 06:37:14;;;;;;;22.48;10.60;;;;;;;7.22;59.59;97733.47;4472426;32;20163;-81
2022/11/22 06:39:39;;;;;;;25.25;11.85;;;;;;;7.27;59.57;97720.94;4486569;32;20456;-85
2022/11/22 06:42:04;;;;;;;21.87;10.50;;;;;;;7.22;59.62;97725.62;4472512;32;20112;-90
2022/11/22 06:44:30;;;;;;;22.42;10.73;;;;;;;7.21;59.62;97718.69;4486806;32;20084;-84
2022/11/22 06:46:55;;;;;;;21.95;10.07;;;;;;;7.26;59.66;97716.66;4486557;32;20111;-84
2022/11/22 06:49:21;;;;;;;22.80;9.63;;;;;;;7.27;59.86;97723.56;4484433;31;20529;-85
2022/11/22 06:51:47;;;;;;;24.12;11.30;;;;;;;7.31;59.92;97720.78;4489635;31;20155;-83
2022/11/22 06:54:12;;;;;;;21.17;9.93;;;;;;;7.33;59.78;97718.91;4469746;32;20333;-83
2022/11/22 06:56:39;;;;;;;22.80;10.10;;;;;;;7.28;59.88;97713.91;4492872;31;20175;-84
2022/11/22 06:59:05;;;;;;;24.17;9.88;;;;;;;7.37;59.84;97721.25;4476770;32;20104;-83
2022/11/22 07:01:31;;;;;;;22.45;10.38;;;;;;;7.47;59.63;97722.41;4468073;32;20104;-84
2022/11/22 07:03:58;;;;;;;24.40;10.77;;;;;;;7.50;59.65;97723.16;4484194;31;20084;-83
2022/11/22 07:06:25;;;;;;;21.50;9.85;;;;;;;6.97;60.25;97714.84;4473122;31;20101;-84
2022/11/22 07:08:51;;;;;;;22.67;10.38;;;;;;;7.33;59.86;97711.03;4479124;31;20110;-83
2022/11/22 07:11:19;;;;;;;21.77;9.73;;;;;;;7.39;59.65;97711.50;4491241;31;20160;-84
2022/11/22 07:13:45;;;;;;;;;;;;;;;7.46;59.67;97717.25;4481022;31;20122;-84
2022/11/22 07:16:12;;;;;;;21.40;9.77;;;;;;;7.50;59.52;97718.75;4474742;32;19984;-84
2022/11/22 07:18:38;;;;;;;24.17;10.30;;;;;;;7.56;59.54;97720.16;4484549;31;20459;-82
2022/11/22 07:21:15;;;;;;;23.10;10.40;;;;;;;7.56;59.26;97714.94;4474991;31;20112;-83
2022/11/22 07:23:42;;;;;;;22.73;10.50;;;;;;;7.57;59.10;97711.34;4497747;31;20100;-83
2022/11/22 07:26:07;;;;;;;23.00;9.93;;;;;;;7.57;58.71;97725.31;4475957;32;20216;-84
2022/11/22 07:28:33;;;;;;;23.83;11.20;;;;;;;7.56;58.56;97717.53;4489283;31;20092;-83
2022/11/22 07:31:00;;;;;;;20.62;9.98;;;;;;;7.56;58.44;97713.13;4489333;31;20468;-86
2022/11/22 07:33:25;;;;;;;24.65;9.90;;;;;;;7.53;58.61;97721.16;4504151;31;20089;-86
2022/11/22 07:35:51;;;;;;;22.45;10.25;;;;;;;7.53;58.61;97720.34;4489631;31;20110;-84
2022/11/22 07:38:16;;;;;;;24.73;10.88;;;;;;;7.24;59.12;97722.87;4503726;31;20084;-86
2022/11/22 07:40:41;;;;;;;23.73;10.05;;;;;;;7.33;58.69;97722.34;4501029;31;20428;-89
2022/11/22 07:43:07;;;;;;;24.15;10.98;;;;;;;6.83;59.91;97724.31;4491434;31;20122;-86
2022/11/22 07:45:32;;;;;;;26.77;10.50;;;;;;;7.16;58.98;97727.72;4494550;31;20139;-84
2022/11/22 07:47:59;;;;;;;20.30;9.57;;;;;;;7.18;59.04;97734.56;4493058;31;20142;-87
2022/11/22 07:50:25;;;;;;;25.12;11.02;;;;;;;7.20;59.19;97732.69;4488660;31;20085;-81
2022/11/22 07:52:57;;;;;;;25.88;11.43;;;;;;;7.25;59.21;97733.28;4487178;31;20088;-83
2022/11/22 07:55:24;;;;;;;24.12;10.88;;;;;;;7.36;58.90;97723.94;4471967;32;20443;-83
2022/11/22 07:57:50;;;;;;;23.75;10.18;;;;;;;7.36;58.91;97723.94;4484802;32;20139;-84
2022/11/22 08:00:16;;;;;;;22.65;10.85;;;;;;;7.08;59.65;97715.09;4485409;32;20101;-84
2022/11/22 08:02:41;;;;;;;22.55;10.05;;;;;;;7.34;59.08;97718.81;4484881;32;20758;-84
2022/11/22 08:05:07;;;;;;;24.42;9.80;;;;;;;7.40;58.97;97723.69;4487069;31;20091;-83
2022/11/22 08:07:32;;;;;;;22.08;9.57;;;;;;;7.39;59.09;97719.38;4485978;32;20112;-86
2022/11/22 08:09:58;;;;;;;24.58;10.35;;;;;;;7.41;59.00;97724.53;4487770;31;20311;-84
2022/11/22 08:12:23;;;;;;;23.67;10.02;;;;;;;7.46;59.04;97717.25;4487903;31;20428;-84
2022/11/22 08:14:48;;;;;;;21.45;10.00;;;;;;;7.51;59.12;97706.47;4488037;31;20087;-83
2022/11/22 08:17:14;;;;;;;24.17;11.15;;;;;;;7.58;58.95;97713.87;4486646;32;20088;-84
2022/11/22 08:19:39;;;;;;;24.87;10.10;;;;;;;7.63;58.68;97714.47;4487854;31;20100;-83
2022/11/22 08:22:05;;;;;;;22.58;10.15;;;;;;;7.23;59.70;97724.66;4486695;32;20174;-84
2022/11/22 08:24:30;;;;;;;25.75;10.32;;;;;;;7.32;59.67;97717.19;4486441;32;20461;-85
2022/11/22 08:26:56;;;;;;;22.55;10.13;;;;;;;7.44;59.18;97713.87;4487681;31;20114;-85
2022/11/22 08:29:21;;;;;;;20.48;9.48;;;;;;;7.47;59.17;97717.16;4487834;31;20136;-86
2022/11/22 08:31:47;;;;;;;22.75;9.68;;;;;;;7.44;59.35;97722.56;4487448;31;20092;-81
2022/11/22 08:34:12;;;;;;;24.25;10.15;;;;;;;7.58;58.88;97715.69;4487581;31;20128;-82
2022/11/22 08:36:37;;;;;;;22.30;9.32;;;;;;;7.62;59.44;97712.78;4486632;32;20446;-82
2022/11/22 08:39:03;;;;;;;21.77;9.90;;;;;;;7.68;59.02;97716.81;4487708;31;20104;-81
2022/11/22 08:41:28;;;;;;;22.85;9.60;;;;;;;7.79;58.81;97709.13;4487762;31;20124;-82
2022/11/22 08:43:54;;;;;;;20.08;9.10;;;;;;;7.65;58.84;97722.25;4487538;31;20379;-82
2022/11/22 08:46:19;;;;;;;21.52;9.00;;;;;;;7.54;59.17;97730.75;4487577;31;20121;-82
2022/11/22 08:48:45;;;;;;;23.50;9.63;;;;;;;7.19;60.19;97722.34;4472475;31;20100;-81
2022/11/22 08:51:12;;;;;;;21.12;8.90;;;;;;;7.25;60.20;97727.22;4476269;31;20122;-80
2022/11/22 08:53:40;;;;;;;21.10;9.10;;;;;;;7.56;59.71;97723.63;4479389;32;20752;-80
2022/11/22 08:56:08;;;;;;;22.13;8.75;;;;;;;7.46;59.62;97728.56;4486468;31;20088;-80
2022/11/22 08:58:34;;;;;;;21.90;8.75;;;;;;;7.27;60.21;97722.72;4485947;31;20114;-80
2022/11/22 09:01:07;;;;;;;22.95;9.68;;;;;;;7.07;60.64;97716.88;4489607;31;20112;-81
2022/11/22 09:03:34;;;;;;;21.23;8.90;;;;;;;7.47;60.00;97718.91;4481260;32;20160;-81
2022/11/22 09:06:03;;;;;;;24.35;9.55;;;;;;;7.29;60.43;97724.31;4496427;31;20083;-81
2022/11/22 09:08:30;;;;;;;21.73;9.10;;;;;;;7.53;59.83;97715.94;4489605;31;20151;-82
2022/11/22 09:10:59;;;;;;;23.92;9.52;;;;;;;7.69;59.56;97721.13;4485654;32;20122;-81
2022/11/22 09:13:24;;;;;;;22.00;9.05;;;;;;;6.95;61.95;97716.72;4472346;32;20084;-81
2022/11/22 09:15:50;;;;;;;23.42;9.50;;;;;;;7.54;60.22;97714.19;4473388;32;20340;-81
2022/11/22 09:18:15;;;;;;;24.37;9.57;;;;;;;7.67;59.75;97715.97;4487681;32;20111;-82
2022/11/22 09:20:40;;;;;;;25.17;9.35;;;;;;;7.54;60.13;97709.78;4473210;32;20432;-81
2022/11/22 09:23:06;;;;;;;26.75;9.68;;;;;;;7.83;59.47;97707.19;4487542;32;20286;-81
2022/11/22 09:25:31;;;;;;;23.73;10.23;;;;;;;7.47;60.82;97705.81;4487574;32;20080;-81
2022/11/22 09:28:03;;;;;;;24.70;9.90;;;;;;;7.25;61.58;97707.09;4473146;32;20100;-82
2022/11/22 09:30:29;;;;;;;24.30;10.18;;;;;;;7.23;61.84;97708.13;4486981;32;20411;-81
2022/11/22 09:32:54;;;;;;;24.52;10.30;;;;;;;7.59;60.68;97697.25;4487442;32;20081;-81
2022/11/22 09:35:20;;;;;;;22.58;9.90;;;;;;;7.88;59.88;97695.47;4459282;32;20106;-81
2022/11/22 09:37:46;;;;;;;23.80;9.57;;;;;;;8.04;59.52;97690.13;4487434;32;20114;-82
2022/11/22 09:40:12;;;;;;;27.58;10.55;;;;;;;8.27;58.99;97685.22;4473060;32;20093;-82
2022/11/22 09:43:10;;;;;;;22.70;9.77;;;;;;;8.40;58.57;97687.91;4473143;32;20238;-82
2022/11/22 09:45:38;;;;;;;26.85;11.43;;;;;;;8.43;58.51;97682.50;4395103;32;20098;-82
2022/11/22 09:48:03;;;;;;;22.60;9.48;;;;;;;8.51;58.12;97674.16;4407568;32;20380;-81
2022/11/22 09:50:31;;;;;;;24.42;10.38;;;;;;;8.39;58.33;97671.31;4407627;32;20177;-82
2022/11/22 09:53:17;;;;;;;;;;;;;;;8.52;58.13;97670.56;4407971;32;20094;-81
2022/11/22 09:55:51;;;;;;;25.73;10.13;;;;;;;8.56;58.37;97659.78;4407499;32;20093;-82
2022/11/22 09:58:37;;;;;;;27.15;11.90;;;;;;;8.75;58.37;97662.06;4395156;32;20126;-81
2022/11/22 10:01:29;;;;;;;27.02;11.77;;;;;;;8.21;59.49;97660.22;4394963;32;20508;-81
2022/11/22 10:04:16;;;;;;;27.48;10.90;;;;;;;8.48;58.86;97662.06;4407535;32;20106;-82
2022/11/22 10:06:49;;;;;;;27.33;11.30;;;;;;;8.55;58.64;97647.59;4407372;32;20171;-81
2022/11/22 10:09:29;;;;;;;26.95;10.80;;;;;;;8.68;58.52;97647.66;4394860;32;20129;-82
2022/11/22 10:12:40;;;;;;;28.40;11.00;;;;;;;8.07;60.08;97640.13;4394875;32;20128;-82
2022/11/22 10:15:28;;;;;;;26.85;11.38;;;;;;;8.81;58.35;97642.44;4405540;32;20085;-82
2022/11/22 10:18:00;;;;;;;26.52;11.30;;;;;;;9.06;57.94;97628.53;4395092;32;20529;-82
2022/11/22 10:20:27;;;;;;;27.33;11.80;;;;;;;9.15;57.56;97634.94;4407736;32;20098;-82
2022/11/22 10:22:53;;;;;;;28.13;11.67;;;;;;;9.35;57.07;97630.94;4465700;32;20096;-82
2022/11/22 10:25:38;;;;;;;25.70;11.35;;;;;;;9.42;56.48;97622.53;4473062;32;20541;-82
2022/11/22 10:28:18;;;;;;;25.30;10.63;;;;;;;9.45;56.48;97624.13;4472829;32;20072;-82
2022/11/22 10:30:51;;;;;;;27.90;11.98;;;;;;;9.53;56.28;97631.50;4459536;32;20092;-81
2022/11/22 10:33:53;;;;;;;29.12;12.43;;;;;;;9.38;56.43;97623.69;4472719;32;20165;-82
2022/11/22 10:36:31;;;;;;;26.90;11.55;;;;;;;9.44;56.26;97625.06;4486793;32;20092;-81
2022/11/22 10:39:20;;;;;;;27.23;12.18;;;;;;;9.43;56.55;97623.41;4472732;32;20084;-82
2022/11/22 10:42:14;;;;;;;27.27;12.05;;;;;;;9.01;57.58;97618.31;4486839;32;20143;-82
2022/11/22 10:44:50;;;;;;;27.42;11.38;;;;;;;9.34;56.55;97610.88;4472598;32;20143;-82
2022/11/22 10:47:53;;;;;;;27.15;11.43;;;;;;;9.34;56.47;97614.34;4472524;32;20088;-82
2022/11/22 10:50:43;;;;;;;29.73;12.95;;;;;;;9.32;56.56;97610.16;4486983;32;20100;-82
2022/11/22 10:53:09;;;;;;;29.42;12.77;;;;;;;8.81;58.12;97603.06;4472461;32;20134;-82
2022/11/22 10:55:54;;;;;;;30.60;12.18;;;;;;;8.85;58.20;97589.59;4486660;32;20088;-82
2022/11/22 10:58:32;;;;;;;26.62;11.80;;;;;;;8.70;58.65;97587.16;4472506;32;20084;-82
2022/11/22 11:01:09;;;;;;;28.75;12.40;;;;;;;8.94;58.18;97587.31;4486588;32;20088;-82
2022/11/22 11:03:41;;;;;;;28.25;12.43;;;;;;;8.89;58.55;97589.41;4472297;32;20278;-82
2022/11/22 11:06:16;;;;;;;31.75;13.02;;;;;;;9.03;58.22;97577.00;4486541;32;20096;-82
2022/11/22 11:08:43;;;;;;;30.05;12.50;;;;;;;8.96;58.47;97580.16;4472063;32;20436;-82
2022/11/22 11:11:09;;;;;;;28.80;12.05;;;;;;;8.91;58.54;97569.97;4486442;32;20161;-82
2022/11/22 11:13:45;;;;;;;29.50;12.48;;;;;;;8.00;61.32;97557.50;4486424;32;20183;-82
2022/11/22 11:16:16;;;;;;;27.70;12.10;;;;;;;8.57;59.83;97559.09;4472226;32;20100;-82
2022/11/22 11:18:57;;;;;;;31.17;12.60;;;;;;;8.70;59.35;97556.50;4472254;32;20111;-82
2022/11/22 11:21:23;;;;;;;29.50;13.05;;;;;;;8.53;60.21;97549.72;4472011;32;20718;-82
2022/11/22 11:23:48;;;;;;;28.35;12.65;;;;;;;8.74;59.59;97550.09;4486226;32;21174;-82
2022/11/22 11:26:31;;;;;;;33.70;13.82;;;;;;;8.92;59.38;97558.50;4471619;32;20100;-82
2022/11/22 11:29:51;;;;;;;30.70;13.60;;;;;;;8.92;59.46;97552.41;4486037;32;20194;-82
2022/11/22 11:32:19;;;;;;;28.98;12.90;;;;;;;9.20;58.75;97540.88;4403961;32;20454;-82
2022/11/22 11:35:06;;;;;;;30.40;13.32;;;;;;;9.12;58.95;97532.69;4393919;32;20136;-82
2022/11/22 11:37:34;;;;;;;29.23;12.77;;;;;;;9.28;58.46;97530.66;4406850;32;20236;-82
2022/11/22 11:39:59;;;;;;;25.52;12.68;;;;;;;9.29;58.64;97523.63;4393848;32;20156;-81
2022/11/22 11:42:28;;;;;;;31.10;13.25;;;;;;;9.30;58.59;97520.91;4406377;32;20094;-81
2022/11/22 11:44:54;;;;;;;29.48;13.75;;;;;;;9.13;58.73;97523.84;4406432;32;20110;-82